Time;durP1;ratioP1;P1;durP2;ratioP2;P2;SDS_P1;SDS_P2;PMS_P1;PMS_P2;Temp;Humidity;BMP_temperature;BMP_pressure;BME280_temperature;BME280_humidity;BME280_pressure;Samples;Min_cycle;Max_cycle;Signal;HPM_P1;HPM_P2
2021/03/06 00:00:01;;;;;;;5.82;3.72;;;;;;;;;;4972350;28;20039;-74
2021/03/06 00:02:26;;;;;;;6.00;3.83;;;;;;;;;;4973482;28;20168;-74
2021/03/06 00:04:52;;;;;;;5.30;4.03;;;;;;;;;;4972399;28;20027;-74
2021/03/06 00:07:17;;;;;;;5.30;3.90;;;;;;;;;;4972047;28;20038;-74
2021/03/06 00:09:43;;;;;;;6.40;4.05;;;;;;;;;;4972020;28;20429;-74
2021/03/06 00:12:08;;;;;;;6.18;4.05;;;;;;;;;;4971541;28;20048;-74
2021/03/06 00:14:34;;;;;;;5.13;3.83;;;;;;;;;;4970702;28;20039;-74
2021/03/06 00:16:59;;;;;;;5.47;3.85;;;;;;;;;;4955769;28;20059;-74
2021/03/06 00:19:25;;;;;;;5.13;3.70;;;;;;;;;;4952246;29;20042;-74
2021/03/06 00:21:50;;;;;;;5.38;4.30;;;;;;;;;;4985014;28;20058;-74
2021/03/06 00:24:16;;;;;;;6.05;4.07;;;;;;;;;;4987588;28;20031;-74
2021/03/06 00:26:41;;;;;;;5.35;3.78;;;;;;;;;;4971045;28;20094;-73
2021/03/06 00:29:06;;;;;;;5.43;4.25;;;;;;;;;;4971457;28;20443;-74
2021/03/06 00:31:32;;;;;;;5.93;4.72;;;;;;;;;;4954814;28;20039;-74
2021/03/06 00:33:57;;;;;;;6.07;4.43;;;;;;;;;;4971370;28;20043;-74
2021/03/06 00:36:23;;;;;;;6.80;3.88;;;;;;;;;;4989296;28;20038;-74
2021/03/06 00:38:48;;;;;;;5.72;4.22;;;;;;;;;;4990672;28;20373;-74
2021/03/06 00:41:14;;;;;;;5.65;4.28;;;;;;;;;;4990791;28;20042;-74
2021/03/06 00:43:39;;;;;;;5.97;4.65;;;;;;;;;;4991131;28;20720;-74
2021/03/06 00:46:05;;;;;;;6.20;4.55;;;;;;;;;;4990976;28;20034;-74
2021/03/06 00:48:32;;;;;;;5.57;3.90;;;;;;;;;;4990906;28;20026;-74
2021/03/06 00:50:58;;;;;;;6.32;4.38;;;;;;;;;;4991072;28;20366;-74
2021/03/06 00:53:23;;;;;;;6.35;4.68;;;;;;;;;;4984563;28;20469;-74
2021/03/06 00:55:48;;;;;;;5.50;4.20;;;;;;;;;;4955247;28;20035;-74
2021/03/06 00:58:14;;;;;;;5.43;4.22;;;;;;;;;;4955265;28;20038;-73
2021/03/06 01:00:39;;;;;;;5.88;4.28;;;;;;;;;;4955485;28;20401;-74
2021/03/06 01:03:05;;;;;;;6.43;4.47;;;;;;;;;;4955374;28;20397;-74
2021/03/06 01:05:30;;;;;;;5.90;3.75;;;;;;;;;;4955690;28;20385;-74
2021/03/06 01:07:56;;;;;;;5.07;3.92;;;;;;;;;;4955003;28;20034;-74
2021/03/06 01:10:25;;;;;;;6.80;4.30;;;;;;;;;;4971230;28;20081;-74
2021/03/06 01:12:50;;;;;;;7.00;4.20;;;;;;;;;;4953321;28;20040;-74
2021/03/06 01:15:16;;;;;;;4.90;3.83;;;;;;;;;;4955306;28;20097;-74
2021/03/06 01:17:42;;;;;;;5.00;3.35;;;;;;;;;;4954872;28;20037;-74
2021/03/06 01:20:08;;;;;;;5.55;4.10;;;;;;;;;;4971591;28;20492;-74
2021/03/06 01:22:33;;;;;;;5.40;4.13;;;;;;;;;;4971000;28;20039;-74
2021/03/06 01:24:59;;;;;;;6.32;4.75;;;;;;;;;;4970983;28;20055;-74
2021/03/06 01:27:24;;;;;;;6.25;4.07;;;;;;;;;;4974037;28;20393;-74
2021/03/06 01:29:50;;;;;;;4.45;3.88;;;;;;;;;;4958747;28;20121;-74
2021/03/06 01:32:15;;;;;;;6.00;4.03;;;;;;;;;;4958806;28;20445;-74
2021/03/06 01:34:41;;;;;;;5.93;4.60;;;;;;;;;;4958728;28;20424;-74
2021/03/06 01:37:06;;;;;;;5.55;3.97;;;;;;;;;;4974580;28;20370;-74
2021/03/06 01:39:31;;;;;;;5.22;3.92;;;;;;;;;;4990923;28;20385;-74
2021/03/06 01:41:57;;;;;;;5.97;3.75;;;;;;;;;;4990956;28;20046;-74
2021/03/06 01:44:23;;;;;;;5.38;4.10;;;;;;;;;;4958890;28;20106;-74
2021/03/06 01:46:48;;;;;;;5.90;3.92;;;;;;;;;;4974262;28;20058;-74
2021/03/06 01:49:14;;;;;;;6.40;4.35;;;;;;;;;;4958773;28;20050;-74
2021/03/06 01:51:40;;;;;;;6.05;4.50;;;;;;;;;;4958629;28;20081;-74
2021/03/06 01:54:05;;;;;;;4.93;3.75;;;;;;;;;;4958162;28;20038;-74
2021/03/06 01:56:31;;;;;;;5.70;4.05;;;;;;;;;;4958537;28;20030;-74
2021/03/06 01:58:57;;;;;;;5.85;4.25;;;;;;;;;;4958052;28;20113;-74
2021/03/06 02:01:22;;;;;;;5.72;3.92;;;;;;;;;;4958070;28;20047;-74
2021/03/06 02:03:48;;;;;;;7.50;3.88;;;;;;;;;;4958324;28;20393;-73
2021/03/06 02:06:13;;;;;;;5.10;3.97;;;;;;;;;;4957604;28;20468;-74
2021/03/06 02:08:38;;;;;;;5.63;3.78;;;;;;;;;;4957899;28;20054;-74
2021/03/06 02:11:04;;;;;;;5.88;3.85;;;;;;;;;;4975171;28;20444;-74
2021/03/06 02:14:04;;;;;;;5.10;4.10;;;;;;;;;;4974040;28;20081;-74
2021/03/06 02:16:50;;;;;;;5.32;3.90;;;;;;;;;;4976759;28;20122;-74
2021/03/06 02:19:37;;;;;;;5.10;3.70;;;;;;;;;;4973823;28;20038;-74
2021/03/06 02:22:36;;;;;;;4.80;3.60;;;;;;;;;;4957514;28;20022;-74
2021/03/06 02:25:04;;;;;;;6.30;4.30;;;;;;;;;;4974204;28;20042;-74
2021/03/06 02:27:31;;;;;;;5.53;3.85;;;;;;;;;;4974160;28;20365;-73
2021/03/06 02:30:04;;;;;;;5.00;3.70;;;;;;;;;;4974229;28;20046;-74
2021/03/06 02:32:39;;;;;;;4.95;3.58;;;;;;;;;;4958339;28;20053;-74
2021/03/06 02:35:15;;;;;;;5.50;3.75;;;;;;;;;;4965913;28;20045;-74
2021/03/06 02:38:03;;;;;;;5.35;3.67;;;;;;;;;;4991754;28;20038;-73
2021/03/06 02:40:28;;;;;;;5.43;3.67;;;;;;;;;;4973558;28;20027;-74
2021/03/06 02:42:55;;;;;;;5.90;4.70;;;;;;;;;;4957637;28;20043;-74
2021/03/06 02:45:20;;;;;;;5.43;3.72;;;;;;;;;;4957974;28;20035;-74
2021/03/06 02:47:47;;;;;;;4.95;3.80;;;;;;;;;;4957484;28;20031;-74
2021/03/06 02:50:12;;;;;;;5.45;3.63;;;;;;;;;;4957606;28;20043;-74
2021/03/06 02:52:38;;;;;;;5.20;3.95;;;;;;;;;;4957017;28;20046;-74
2021/03/06 02:55:05;;;;;;;6.05;3.78;;;;;;;;;;4957441;28;20484;-74
2021/03/06 02:57:42;;;;;;;5.32;4.03;;;;;;;;;;4957359;28;20497;-74
2021/03/06 03:00:30;;;;;;;4.93;3.83;;;;;;;;;;4974047;28;20069;-74
2021/03/06 03:03:21;;;;;;;4.70;3.65;;;;;;;;;;4974705;28;20489;-73
2021/03/06 03:06:00;;;;;;;5.25;3.65;;;;;;;;;;4991621;28;20038;-74
2021/03/06 03:08:29;;;;;;;4.63;3.63;;;;;;;;;;4973187;28;20097;-74
2021/03/06 03:10:56;;;;;;;5.00;3.47;;;;;;;;;;4956927;28;20077;-74
2021/03/06 03:13:22;;;;;;;4.57;3.40;;;;;;;;;;4973200;28;20035;-74
2021/03/06 03:15:52;;;;;;;5.20;3.75;;;;;;;;;;4972980;28;20556;-74
2021/03/06 03:18:20;;;;;;;5.57;3.92;;;;;;;;;;4973007;28;20065;-74
2021/03/06 03:20:57;;;;;;;4.68;3.53;;;;;;;;;;4972822;28;20061;-73
2021/03/06 03:23:45;;;;;;;4.95;3.85;;;;;;;;;;4956945;28;20035;-74
2021/03/06 03:26:14;;;;;;;5.65;3.97;;;;;;;;;;4970421;28;20042;-74
2021/03/06 03:28:42;;;;;;;5.70;3.95;;;;;;;;;;4969466;28;20106;-74
2021/03/06 03:31:07;;;;;;;5.53;4.22;;;;;;;;;;4985702;28;20390;-74
2021/03/06 03:33:33;;;;;;;4.85;3.55;;;;;;;;;;4953505;28;20023;-74
2021/03/06 03:36:00;;;;;;;6.28;4.00;;;;;;;;;;4983037;28;20078;-74
2021/03/06 03:38:26;;;;;;;5.10;3.90;;;;;;;;;;4975780;28;20034;-74
2021/03/06 03:40:51;;;;;;;5.75;3.90;;;;;;;;;;4988406;28;20038;-74
2021/03/06 03:43:17;;;;;;;6.15;4.03;;;;;;;;;;4956679;28;20069;-74
2021/03/06 03:45:42;;;;;;;5.95;4.20;;;;;;;;;;4956348;28;20134;-74
2021/03/06 03:48:08;;;;;;;6.10;4.18;;;;;;;;;;4971845;28;20370;-73
2021/03/06 03:50:33;;;;;;;5.85;3.70;;;;;;;;;;4955872;28;20039;-74
2021/03/06 03:52:59;;;;;;;6.32;3.80;;;;;;;;;;4956168;28;20041;-74
2021/03/06 03:55:24;;;;;;;4.18;3.17;;;;;;;;;;4952766;29;20035;-74
2021/03/06 03:57:50;;;;;;;6.00;3.65;;;;;;;;;;4985102;28;20110;-74
2021/03/06 04:00:19;;;;;;;4.78;3.25;;;;;;;;;;4968829;28;20114;-73
2021/03/06 04:02:48;;;;;;;5.30;4.30;;;;;;;;;;4954463;28;20102;-74
2021/03/06 04:05:14;;;;;;;5.00;3.33;;;;;;;;;;4984689;28;20903;-73
2021/03/06 04:07:49;;;;;;;5.45;3.65;;;;;;;;;;4971678;28;20042;-74
2021/03/06 04:10:17;;;;;;;4.82;3.38;;;;;;;;;;4956113;28;20039;-74
2021/03/06 04:12:43;;;;;;;5.05;3.63;;;;;;;;;;4970868;28;20085;-74
2021/03/06 04:15:09;;;;;;;6.22;4.00;;;;;;;;;;4973572;28;20488;-74
2021/03/06 04:17:35;;;;;;;5.75;4.25;;;;;;;;;;4975388;28;20036;-74
2021/03/06 04:20:02;;;;;;;4.70;3.60;;;;;;;;;;4991034;28;20070;-74
2021/03/06 04:22:27;;;;;;;6.80;4.20;;;;;;;;;;4991232;28;20099;-73
2021/03/06 04:24:53;;;;;;;5.60;3.75;;;;;;;;;;4964960;28;20035;-74
2021/03/06 04:27:18;;;;;;;4.75;3.40;;;;;;;;;;4955228;28;20338;-74
2021/03/06 04:29:44;;;;;;;5.05;3.45;;;;;;;;;;4971942;28;20074;-74
2021/03/06 04:32:09;;;;;;;5.25;3.55;;;;;;;;;;4972017;28;20134;-74
2021/03/06 04:34:34;;;;;;;4.97;3.40;;;;;;;;;;4955375;28;20042;-74
2021/03/06 04:37:00;;;;;;;5.18;3.85;;;;;;;;;;4970888;28;20389;-73
2021/03/06 04:39:25;;;;;;;5.43;3.80;;;;;;;;;;4987669;28;20382;-74
2021/03/06 04:41:51;;;;;;;5.10;3.38;;;;;;;;;;4987470;28;20049;-74
2021/03/06 04:44:16;;;;;;;5.55;3.47;;;;;;;;;;4971673;28;20444;-74
2021/03/06 04:46:42;;;;;;;6.28;3.60;;;;;;;;;;4955504;28;20440;-74
2021/03/06 04:49:07;;;;;;;5.18;3.63;;;;;;;;;;4970378;28;20444;-74
2021/03/06 04:51:33;;;;;;;4.30;3.30;;;;;;;;;;4955469;28;20049;-73
2021/03/06 04:53:58;;;;;;;4.95;3.33;;;;;;;;;;4971309;28;20042;-74
2021/03/06 04:56:24;;;;;;;5.45;3.53;;;;;;;;;;4971568;28;20034;-74
2021/03/06 04:58:50;;;;;;;5.13;3.78;;;;;;;;;;4971189;28;20046;-73
2021/03/06 05:01:16;;;;;;;5.15;3.50;;;;;;;;;;4972750;28;20126;-74
2021/03/06 05:03:41;;;;;;;5.00;3.40;;;;;;;;;;4975045;28;20038;-73
2021/03/06 05:06:06;;;;;;;5.15;3.03;;;;;;;;;;4959258;28;20434;-73
2021/03/06 05:08:32;;;;;;;5.47;3.58;;;;;;;;;;4974936;28;20093;-74
2021/03/06 05:10:57;;;;;;;4.78;3.60;;;;;;;;;;4975233;28;20362;-74
2021/03/06 05:13:23;;;;;;;5.90;3.28;;;;;;;;;;4978011;28;20385;-74
2021/03/06 05:15:48;;;;;;;5.28;3.47;;;;;;;;;;4994746;28;20049;-73
2021/03/06 05:18:14;;;;;;;5.15;3.65;;;;;;;;;;4994180;28;20455;-73
2021/03/06 05:20:39;;;;;;;4.07;3.10;;;;;;;;;;4995800;28;20362;-74
2021/03/06 05:23:05;;;;;;;5.00;2.97;;;;;;;;;;4994459;28;20036;-73
2021/03/06 05:25:30;;;;;;;3.70;2.63;;;;;;;;;;4962547;28;20420;-73
2021/03/06 05:27:56;;;;;;;5.78;3.40;;;;;;;;;;4975061;28;20053;-74
2021/03/06 05:30:23;;;;;;;4.43;3.42;;;;;;;;;;4958542;28;20102;-74
2021/03/06 05:32:48;;;;;;;4.20;2.70;;;;;;;;;;4975306;28;20212;-74
2021/03/06 05:35:14;;;;;;;4.88;3.40;;;;;;;;;;4956315;28;20106;-73
2021/03/06 05:37:39;;;;;;;4.47;2.90;;;;;;;;;;4974773;28;20039;-74
2021/03/06 05:40:05;;;;;;;4.35;2.70;;;;;;;;;;4958547;28;20039;-74
2021/03/06 05:42:31;;;;;;;5.28;3.05;;;;;;;;;;4973817;28;20449;-73
2021/03/06 05:44:57;;;;;;;4.75;3.33;;;;;;;;;;4990460;28;20033;-74
2021/03/06 05:47:22;;;;;;;4.43;2.70;;;;;;;;;;4958397;28;20085;-73
2021/03/06 05:49:48;;;;;;;4.25;2.85;;;;;;;;;;4958580;28;20035;-74
2021/03/06 05:52:17;;;;;;;4.85;3.05;;;;;;;;;;4958404;28;20117;-74
2021/03/06 05:54:42;;;;;;;4.05;2.63;;;;;;;;;;4959056;28;20485;-73
2021/03/06 05:57:07;;;;;;;4.85;2.92;;;;;;;;;;4958594;28;20050;-73
2021/03/06 05:59:33;;;;;;;4.53;3.25;;;;;;;;;;4974162;28;20392;-74
2021/03/06 06:01:58;;;;;;;4.75;3.05;;;;;;;;;;4958440;28;20126;-74
2021/03/06 06:04:25;;;;;;;5.20;3.80;;;;;;;;;;4958392;28;20038;-74
2021/03/06 06:06:51;;;;;;;5.03;3.22;;;;;;;;;;4958129;28;20045;-73
2021/03/06 06:09:16;;;;;;;5.13;3.20;;;;;;;;;;4973973;28;20389;-73
2021/03/06 06:11:42;;;;;;;5.07;3.17;;;;;;;;;;4957967;28;20385;-73
2021/03/06 06:14:07;;;;;;;4.75;3.47;;;;;;;;;;4974773;28;20404;-73
2021/03/06 06:16:33;;;;;;;5.50;3.53;;;;;;;;;;4973629;28;20378;-73
2021/03/06 06:19:04;;;;;;;4.15;2.80;;;;;;;;;;4989406;28;20031;-73
2021/03/06 06:21:42;;;;;;;4.95;2.67;;;;;;;;;;4974413;28;20110;-73
2021/03/06 06:24:11;;;;;;;5.38;3.15;;;;;;;;;;4970403;28;20102;-74
2021/03/06 06:26:37;;;;;;;4.80;3.30;;;;;;;;;;4939337;29;20062;-74
2021/03/06 06:29:03;;;;;;;5.07;3.10;;;;;;;;;;4938199;29;20039;-74
2021/03/06 06:31:29;;;;;;;5.38;2.83;;;;;;;;;;4938851;29;20051;-75
2021/03/06 06:33:54;;;;;;;4.32;2.58;;;;;;;;;;4953853;28;20440;-75
2021/03/06 06:36:38;;;;;;;4.22;2.72;;;;;;;;;;4989510;28;20053;-75
2021/03/06 06:39:05;;;;;;;6.05;3.33;;;;;;;;;;4980505;28;20389;-74
2021/03/06 06:41:53;;;;;;;4.20;2.90;;;;;;;;;;4941598;28;20082;-74
2021/03/06 06:44:23;;;;;;;6.28;3.10;;;;;;;;;;4957215;28;20043;-74
2021/03/06 06:46:53;;;;;;;7.40;3.33;;;;;;;;;;4974973;28;20086;-74
2021/03/06 06:49:26;;;;;;;5.63;3.00;;;;;;;;;;4957791;28;20081;-74
2021/03/06 06:51:58;;;;;;;4.22;2.67;;;;;;;;;;4975125;28;20123;-74
2021/03/06 06:54:23;;;;;;;4.50;3.40;;;;;;;;;;4974746;28;20033;-74
2021/03/06 06:56:48;;;;;;;4.70;2.88;;;;;;;;;;4956885;28;20505;-74
2021/03/06 06:59:15;;;;;;;5.63;2.58;;;;;;;;;;4956628;28;20043;-74
2021/03/06 07:01:41;;;;;;;6.05;3.30;;;;;;;;;;4957440;28;20058;-74
2021/03/06 07:04:10;;;;;;;7.05;2.85;;;;;;;;;;4974849;28;20039;-74
2021/03/06 07:06:36;;;;;;;7.20;3.30;;;;;;;;;;4972967;28;20115;-74
2021/03/06 07:09:08;;;;;;;8.18;3.15;;;;;;;;;;4974298;28;20122;-74
2021/03/06 07:11:34;;;;;;;4.85;3.33;;;;;;;;;;4973202;28;20066;-74
2021/03/06 07:13:59;;;;;;;5.75;2.92;;;;;;;;;;4964795;28;20070;-74
2021/03/06 07:16:46;;;;;;;8.13;3.00;;;;;;;;;;4976202;28;20108;-74
2021/03/06 07:19:11;;;;;;;8.43;3.63;;;;;;;;;;4973895;28;20034;-74
2021/03/06 07:21:50;;;;;;;11.30;5.38;;;;;;;;;;4972958;28;20045;-74
2021/03/06 07:24:15;;;;;;;11.18;3.25;;;;;;;;;;5004657;28;20575;-74
2021/03/06 07:26:41;;;;;;;7.63;2.65;;;;;;;;;;4972409;28;20031;-74
2021/03/06 07:29:06;;;;;;;7.32;2.95;;;;;;;;;;4988873;28;20126;-74
2021/03/06 07:31:32;;;;;;;7.80;3.70;;;;;;;;;;4988929;28;20042;-74
2021/03/06 07:33:57;;;;;;;7.10;2.58;;;;;;;;;;4972857;28;20023;-74
2021/03/06 07:36:22;;;;;;;8.85;2.90;;;;;;;;;;4988904;28;20089;-74
2021/03/06 07:38:48;;;;;;;7.35;3.20;;;;;;;;;;4988633;28;20378;-74
2021/03/06 07:41:13;;;;;;;15.35;2.63;;;;;;;;;;4988335;28;20452;-74
2021/03/06 07:43:39;;;;;;;10.80;3.00;;;;;;;;;;4988794;28;20448;-74
2021/03/06 07:46:05;;;;;;;7.38;2.92;;;;;;;;;;4988527;28;20042;-74
2021/03/06 07:48:33;;;;;;;7.97;3.13;;;;;;;;;;4988491;28;20038;-74
2021/03/06 07:50:58;;;;;;;6.78;3.53;;;;;;;;;;4988340;28;20105;-74
2021/03/06 07:53:25;;;;;;;6.25;3.08;;;;;;;;;;4988347;28;20030;-74
2021/03/06 07:55:52;;;;;;;8.07;3.13;;;;;;;;;;5004227;28;20508;-74
2021/03/06 07:58:23;;;;;;;4.13;2.50;;;;;;;;;;4988101;28;20110;-74
2021/03/06 08:00:48;;;;;;;7.22;3.05;;;;;;;;;;4988368;28;20065;-74
2021/03/06 08:03:33;;;;;;;8.05;3.85;;;;;;;;;;4973539;28;20485;-74
2021/03/06 08:06:18;;;;;;;5.70;3.00;;;;;;;;;;4973235;28;20503;-74
2021/03/06 08:08:46;;;;;;;10.35;2.97;;;;;;;;;;4999628;28;20084;-74
2021/03/06 08:11:21;;;;;;;8.02;3.53;;;;;;;;;;4973147;28;20035;-74
2021/03/06 08:13:47;;;;;;;7.85;3.47;;;;;;;;;;4972116;28;20030;-74
2021/03/06 08:16:25;;;;;;;8.13;3.80;;;;;;;;;;5004113;28;20027;-74
2021/03/06 08:21:34;;;;;;;6.75;3.67;;;;;;;;;;5000257;23;20050;-74
2021/03/06 08:24:15;;;;;;;6.93;2.90;;;;;;;;;;4991291;28;20084;-74
2021/03/06 08:26:40;;;;;;;5.25;3.05;;;;;;;;;;5023959;28;20044;-74
2021/03/06 08:29:25;;;;;;;7.47;3.42;;;;;;;;;;4992444;28;20034;-75
2021/03/06 08:32:13;;;;;;;5.88;3.22;;;;;;;;;;4992823;28;20109;-75
2021/03/06 08:34:49;;;;;;;4.90;3.55;;;;;;;;;;4991328;28;20420;-74
2021/03/06 08:37:14;;;;;;;7.63;4.63;;;;;;;;;;4990541;28;20092;-75
2021/03/06 08:39:45;;;;;;;9.30;6.82;;;;;;;;;;4991586;28;20038;-74
2021/03/06 08:42:23;;;;;;;14.65;9.57;;;;;;;;;;4970744;28;20483;-75
2021/03/06 08:44:49;;;;;;;17.45;12.32;;;;;;;;;;4991099;28;20114;-74
2021/03/06 08:47:27;;;;;;;23.70;16.65;;;;;;;;;;4991006;28;20084;-75
2021/03/06 08:49:54;;;;;;;20.33;13.57;;;;;;;;;;4994998;28;20046;-75
2021/03/06 08:52:21;;;;;;;18.10;12.27;;;;;;;;;;4973811;28;20039;-75
2021/03/06 08:54:47;;;;;;;17.58;11.65;;;;;;;;;;4974200;28;20559;-76
2021/03/06 08:57:21;;;;;;;18.40;11.77;;;;;;;;;;4992325;28;20042;-76
2021/03/06 08:59:47;;;;;;;20.70;11.75;;;;;;;;;;4991256;28;20034;-75
2021/03/06 09:02:29;;;;;;;17.45;9.88;;;;;;;;;;4974757;28;20038;-75
2021/03/06 09:05:01;;;;;;;15.23;9.52;;;;;;;;;;4974399;28;20683;-75
2021/03/06 09:07:28;;;;;;;17.17;9.57;;;;;;;;;;4989832;28;20038;-76
2021/03/06 09:09:54;;;;;;;15.90;9.85;;;;;;;;;;4969881;28;20039;-76
2021/03/06 09:12:19;;;;;;;15.50;9.13;;;;;;;;;;4971400;28;20090;-76
2021/03/06 09:14:44;;;;;;;12.38;8.80;;;;;;;;;;4971868;28;20069;-76
2021/03/06 09:17:10;;;;;;;12.77;8.07;;;;;;;;;;4959519;28;20029;-76
2021/03/06 09:19:36;;;;;;;11.88;7.63;;;;;;;;;;4991540;28;20038;-76
2021/03/06 09:22:05;;;;;;;11.38;7.97;;;;;;;;;;4973994;28;20038;-76
2021/03/06 09:24:50;;;;;;;9.60;7.13;;;;;;;;;;4990535;28;20063;-77
2021/03/06 09:27:16;;;;;;;9.30;6.70;;;;;;;;;;4974921;28;20045;-76
2021/03/06 09:29:45;;;;;;;10.05;6.70;;;;;;;;;;4974361;28;20030;-76
2021/03/06 09:32:10;;;;;;;9.20;5.82;;;;;;;;;;4974499;28;20492;-76
2021/03/06 09:34:36;;;;;;;10.35;6.88;;;;;;;;;;4975562;28;20060;-76
2021/03/06 09:37:15;;;;;;;9.00;6.38;;;;;;;;;;4974981;28;20182;-77
2021/03/06 09:39:40;;;;;;;8.38;4.68;;;;;;;;;;4974155;28;20104;-76
2021/03/06 09:42:06;;;;;;;7.25;4.70;;;;;;;;;;4971575;28;20495;-77
2021/03/06 09:44:32;;;;;;;8.82;4.78;;;;;;;;;;4957858;28;20101;-76
2021/03/06 09:46:59;;;;;;;8.30;4.72;;;;;;;;;;4973681;28;20045;-76
2021/03/06 09:49:32;;;;;;;6.60;4.28;;;;;;;;;;4978275;28;20054;-77
2021/03/06 09:51:58;;;;;;;6.15;4.50;;;;;;;;;;4977659;28;20026;-77
2021/03/06 09:54:25;;;;;;;15.10;11.68;;;;;;;;;;4977305;28;20044;-76
2021/03/06 09:56:57;;;;;;;13.88;9.68;;;;;;;;;;4974368;28;20038;-77
2021/03/06 09:59:24;;;;;;;13.15;9.65;;;;;;;;;;4961366;28;20101;-77
2021/03/06 10:01:49;;;;;;;17.70;10.27;;;;;;;;;;4962064;28;20034;-77
2021/03/06 10:04:21;;;;;;;12.65;9.40;;;;;;;;;;4993734;28;20088;-77
2021/03/06 10:06:51;;;;;;;9.88;7.57;;;;;;;;;;4993193;28;20045;-76
2021/03/06 10:09:17;;;;;;;15.10;7.90;;;;;;;;;;4977383;28;20041;-76
2021/03/06 10:11:45;;;;;;;12.57;7.22;;;;;;;;;;4993561;28;20037;-76
2021/03/06 10:14:16;;;;;;;11.55;6.38;;;;;;;;;;4987148;28;20573;-76
2021/03/06 10:17:14;;;;;;;8.90;5.63;;;;;;;;;;4985228;28;20088;-76
2021/03/06 10:19:47;;;;;;;7.65;5.03;;;;;;;;;;4972571;28;20054;-76
2021/03/06 10:22:13;;;;;;;8.85;5.40;;;;;;;;;;4962710;28;20038;-76
2021/03/06 10:24:55;;;;;;;6.55;4.60;;;;;;;;;;4973527;28;20078;-76
2021/03/06 10:27:46;;;;;;;7.97;4.18;;;;;;;;;;4973721;28;20105;-76
2021/03/06 10:30:26;;;;;;;6.15;4.10;;;;;;;;;;4959115;28;20362;-76
2021/03/06 10:33:02;;;;;;;6.95;4.20;;;;;;;;;;4974873;28;20035;-76
2021/03/06 10:35:40;;;;;;;4.63;3.47;;;;;;;;;;4942390;28;20465;-76
2021/03/06 10:38:29;;;;;;;4.00;2.70;;;;;;;;;;4985356;28;20050;-76
2021/03/06 10:41:01;;;;;;;4.05;2.83;;;;;;;;;;4957108;28;20062;-77
2021/03/06 10:43:39;;;;;;;4.93;2.70;;;;;;;;;;4974725;28;20042;-76
2021/03/06 10:46:20;;;;;;;4.38;2.25;;;;;;;;;;4958258;28;20034;-76
2021/03/06 10:48:54;;;;;;;5.68;2.55;;;;;;;;;;4972219;28;20126;-76
2021/03/06 10:51:20;;;;;;;4.82;2.42;;;;;;;;;;4971730;28;20102;-76
2021/03/06 10:54:05;;;;;;;6.72;2.42;;;;;;;;;;4980969;28;20118;-76
2021/03/06 10:56:30;;;;;;;6.68;2.20;;;;;;;;;;4958950;28;20030;-76
2021/03/06 10:58:56;;;;;;;7.20;2.10;;;;;;;;;;4983336;28;20096;-76
2021/03/06 11:01:21;;;;;;;6.25;2.05;;;;;;;;;;4964509;28;20179;-76
2021/03/06 11:03:47;;;;;;;6.55;1.90;;;;;;;;;;4988134;28;20038;-76
2021/03/06 11:06:13;;;;;;;4.03;1.77;;;;;;;;;;4985283;28;20030;-76
2021/03/06 11:08:39;;;;;;;6.57;1.77;;;;;;;;;;4984325;28;20038;-76
2021/03/06 11:11:05;;;;;;;4.75;1.90;;;;;;;;;;4985220;28;20114;-76
2021/03/06 11:13:44;;;;;;;3.63;1.60;;;;;;;;;;4991993;28;20035;-76
2021/03/06 11:16:13;;;;;;;5.65;2.05;;;;;;;;;;4975146;28;20492;-76
2021/03/06 11:18:52;;;;;;;5.15;1.38;;;;;;;;;;4956390;28;20034;-76
2021/03/06 11:21:17;;;;;;;4.97;1.90;;;;;;;;;;4998289;23;20136;-76
2021/03/06 11:23:43;;;;;;;5.55;1.85;;;;;;;;;;4990779;28;20410;-76
2021/03/06 11:26:08;;;;;;;3.17;1.45;;;;;;;;;;5017052;28;20408;-76
2021/03/06 11:28:34;;;;;;;4.15;1.50;;;;;;;;;;4974630;28;20046;-76
2021/03/06 11:31:04;;;;;;;4.57;1.52;;;;;;;;;;4972923;28;20046;-76
2021/03/06 11:33:29;;;;;;;2.60;1.30;;;;;;;;;;4973537;28;20045;-76
2021/03/06 11:35:55;;;;;;;5.05;1.95;;;;;;;;;;5023356;28;20113;-76
2021/03/06 11:38:22;;;;;;;4.55;2.50;;;;;;;;;;5023967;28;20517;-76
2021/03/06 11:40:49;;;;;;;3.47;1.83;;;;;;;;;;5023033;28;20034;-76
2021/03/06 11:43:14;;;;;;;4.28;2.33;;;;;;;;;;5002509;28;20038;-76
2021/03/06 11:45:40;;;;;;;4.95;2.00;;;;;;;;;;4972383;28;20064;-76
2021/03/06 11:48:06;;;;;;;4.97;1.80;;;;;;;;;;5004594;28;20050;-76
2021/03/06 11:50:34;;;;;;;5.85;1.67;;;;;;;;;;5021003;28;20038;-76
2021/03/06 11:52:59;;;;;;;3.78;1.67;;;;;;;;;;4956911;28;20055;-76
2021/03/06 11:55:25;;;;;;;5.43;1.60;;;;;;;;;;4953556;28;20042;-76
2021/03/06 11:57:50;;;;;;;4.15;1.55;;;;;;;;;;5006997;28;20065;-76
2021/03/06 12:00:17;;;;;;;6.80;1.77;;;;;;;;;;5005615;28;20465;-76
2021/03/06 12:02:43;;;;;;;5.53;1.98;;;;;;;;;;4971584;28;20038;-76
2021/03/06 12:05:09;;;;;;;8.43;2.00;;;;;;;;;;4969848;28;20034;-77
2021/03/06 12:07:35;;;;;;;10.95;2.47;;;;;;;;;;5018146;28;20034;-76
2021/03/06 12:10:00;;;;;;;7.30;1.95;;;;;;;;;;5022094;28;20469;-76
2021/03/06 12:12:26;;;;;;;3.35;1.58;;;;;;;;;;4957684;28;20449;-77
2021/03/06 12:14:51;;;;;;;7.13;2.00;;;;;;;;;;5004604;28;20082;-76
2021/03/06 12:17:17;;;;;;;8.93;1.60;;;;;;;;;;4988965;28;20030;-77
2021/03/06 12:19:42;;;;;;;3.88;1.70;;;;;;;;;;4974778;28;20466;-76
2021/03/06 12:22:08;;;;;;;4.25;1.60;;;;;;;;;;5005572;28;20070;-77
2021/03/06 12:24:34;;;;;;;6.95;2.05;;;;;;;;;;4995593;28;20532;-76
2021/03/06 12:26:59;;;;;;;6.85;2.00;;;;;;;;;;5004275;28;20054;-76
2021/03/06 12:29:24;;;;;;;6.25;1.75;;;;;;;;;;5004283;28;20039;-76
2021/03/06 12:31:50;;;;;;;4.65;1.67;;;;;;;;;;4997002;28;20039;-76
2021/03/06 12:34:15;;;;;;;3.70;1.60;;;;;;;;;;5012167;28;20046;-76
2021/03/06 12:36:43;;;;;;;5.68;2.03;;;;;;;;;;5023146;28;20500;-76
2021/03/06 12:39:09;;;;;;;6.22;1.98;;;;;;;;;;5006554;28;20038;-76
2021/03/06 12:41:34;;;;;;;4.45;1.75;;;;;;;;;;4990212;28;20128;-77
2021/03/06 12:44:00;;;;;;;4.97;1.80;;;;;;;;;;4972203;28;20042;-77
2021/03/06 12:46:25;;;;;;;6.97;1.60;;;;;;;;;;4962727;28;20042;-77
2021/03/06 12:48:51;;;;;;;5.15;2.20;;;;;;;;;;4967112;28;20427;-76
2021/03/06 12:51:17;;;;;;;6.43;1.85;;;;;;;;;;4984388;28;20047;-77
2021/03/06 12:53:42;;;;;;;4.07;1.70;;;;;;;;;;5003182;28;20034;-76
2021/03/06 12:56:08;;;;;;;6.93;1.55;;;;;;;;;;5003976;28;20037;-77
2021/03/06 12:58:33;;;;;;;3.72;1.90;;;;;;;;;;5005598;28;20045;-77
2021/03/06 13:00:59;;;;;;;4.25;1.52;;;;;;;;;;4993726;28;20405;-76
2021/03/06 13:03:24;;;;;;;4.38;1.63;;;;;;;;;;5018926;28;20089;-76
2021/03/06 13:05:50;;;;;;;3.45;1.60;;;;;;;;;;5016558;28;20035;-76
2021/03/06 13:08:15;;;;;;;4.22;1.25;;;;;;;;;;4986324;28;20046;-76
2021/03/06 13:10:41;;;;;;;3.45;1.00;;;;;;;;;;4987112;28;20045;-76
2021/03/06 13:13:06;;;;;;;5.82;1.27;;;;;;;;;;4987612;28;20041;-76
2021/03/06 13:15:31;;;;;;;4.15;1.27;;;;;;;;;;4989965;28;20390;-76
2021/03/06 13:17:57;;;;;;;2.88;1.30;;;;;;;;;;5006329;28;20049;-76
2021/03/06 13:20:22;;;;;;;3.75;1.63;;;;;;;;;;5022879;28;20050;-76
2021/03/06 13:22:48;;;;;;;3.50;1.30;;;;;;;;;;4992277;28;20052;-76
2021/03/06 13:25:13;;;;;;;3.55;1.45;;;;;;;;;;4987952;28;20097;-76
2021/03/06 13:27:39;;;;;;;4.28;1.30;;;;;;;;;;5026668;28;20030;-76
2021/03/06 13:30:06;;;;;;;3.47;1.27;;;;;;;;;;5026483;28;20042;-76
2021/03/06 13:32:31;;;;;;;4.20;1.20;;;;;;;;;;4961886;28;20116;-76
2021/03/06 13:34:56;;;;;;;3.28;1.67;;;;;;;;;;5010355;28;20046;-76
2021/03/06 13:37:22;;;;;;;5.72;1.48;;;;;;;;;;4977649;28;20045;-76
2021/03/06 13:39:47;;;;;;;2.90;1.17;;;;;;;;;;4993670;28;20068;-76
2021/03/06 13:42:13;;;;;;;3.20;1.13;;;;;;;;;;4977794;28;20042;-76
2021/03/06 13:44:39;;;;;;;2.78;1.45;;;;;;;;;;5010250;28;20042;-76
2021/03/06 13:47:04;;;;;;;3.30;1.90;;;;;;;;;;5026273;28;20089;-76
2021/03/06 13:49:30;;;;;;;3.83;1.38;;;;;;;;;;5009871;28;20096;-76
2021/03/06 13:51:55;;;;;;;3.15;1.27;;;;;;;;;;4993491;28;20045;-76
2021/03/06 13:54:21;;;;;;;4.68;1.75;;;;;;;;;;4991096;28;20043;-76
2021/03/06 13:56:46;;;;;;;3.63;1.45;;;;;;;;;;5006904;28;20464;-76
2021/03/06 13:59:11;;;;;;;2.95;1.13;;;;;;;;;;5008263;28;20046;-76
2021/03/06 14:01:37;;;;;;;3.22;1.27;;;;;;;;;;5009635;28;20046;-76
2021/03/06 14:04:02;;;;;;;3.50;1.50;;;;;;;;;;4993837;28;20092;-76
2021/03/06 14:06:28;;;;;;;2.83;1.30;;;;;;;;;;5009761;28;20043;-76
2021/03/06 14:08:53;;;;;;;3.13;1.15;;;;;;;;;;5026157;28;20118;-76
2021/03/06 14:11:19;;;;;;;2.50;1.40;;;;;;;;;;5026257;28;20105;-76
2021/03/06 14:13:44;;;;;;;3.13;1.35;;;;;;;;;;5009678;28;20458;-76
2021/03/06 14:16:10;;;;;;;3.38;1.80;;;;;;;;;;5025980;28;20038;-76
2021/03/06 14:18:37;;;;;;;2.30;1.27;;;;;;;;;;5009577;28;20047;-77
2021/03/06 14:21:03;;;;;;;4.10;1.80;;;;;;;;;;4992981;28;20042;-76
2021/03/06 14:23:28;;;;;;;2.65;1.35;;;;;;;;;;4960927;28;20137;-76
2021/03/06 14:25:53;;;;;;;2.92;1.55;;;;;;;;;;4992781;28;20046;-76
2021/03/06 14:28:19;;;;;;;3.58;1.50;;;;;;;;;;5004863;28;20602;-77
2021/03/06 14:30:44;;;;;;;2.80;1.15;;;;;;;;;;4990305;28;20134;-76
2021/03/06 14:33:10;;;;;;;2.72;1.30;;;;;;;;;;4988831;28;20054;-76
2021/03/06 14:35:35;;;;;;;3.22;1.23;;;;;;;;;;4989390;28;20035;-76
2021/03/06 14:38:00;;;;;;;2.88;1.65;;;;;;;;;;4973112;28;20044;-76
2021/03/06 14:40:26;;;;;;;2.22;1.20;;;;;;;;;;4989745;28;20043;-76
2021/03/06 14:42:53;;;;;;;2.40;1.55;;;;;;;;;;4989816;28;20034;-76
2021/03/06 14:45:19;;;;;;;3.47;1.58;;;;;;;;;;4973676;28;20624;-76
2021/03/06 14:47:44;;;;;;;2.70;1.40;;;;;;;;;;4989542;28;20493;-76